Time;durP1;ratioP1;P1;durP2;ratioP2;P2;SDS_P1;SDS_P2;PMS_P1;PMS_P2;Temp;Humidity;BMP_temperature;BMP_pressure;BME280_temperature;BME280_humidity;BME280_pressure;Samples;Min_cycle;Max_cycle;Signal;HPM_P1;HPM_P2
2022/01/21 00:02:24;;;;;;;11.67;5.30;;;1.20;83.50;;;;;;5000980;28;20201;-60
2022/01/21 00:04:53;;;;;;;11.93;4.73;;;1.30;80.90;;;;;;5001834;28;20626;-61
2022/01/21 00:07:20;;;;;;;23.07;4.03;;;1.20;49.80;;;;;;4987225;28;20294;-60
2022/01/21 00:09:49;;;;;;;16.47;3.60;;;1.20;38.90;;;;;;5002224;28;20213;-60
2022/01/21 00:12:19;;;;;;;10.47;3.27;;;1.10;22.20;;;;;;5004843;28;20320;-60
2022/01/21 00:14:46;;;;;;;9.47;3.17;;;1.00;43.20;;;;;;5002968;28;20268;-60
2022/01/21 00:17:15;;;;;;;14.30;3.20;;;0.90;99.90;;;;;;4984788;28;20640;-60
2022/01/21 00:19:51;;;;;;;19.43;3.30;;;0.90;99.90;;;;;;4999758;28;20208;-60
2022/01/21 00:30:42;;;;;;;14.03;3.07;;;1.20;99.90;;;;;;4985927;28;20280;-60
2022/01/21 00:33:11;;;;;;;12.10;2.83;;;1.30;77.70;;;;;;4990150;28;20553;-60
2022/01/21 00:35:38;;;;;;;19.07;3.87;;;1.30;30.00;;;;;;4973323;28;20624;-60
2022/01/21 00:38:07;;;;;;;13.13;3.63;;;1.30;7.60;;;;;;4989988;28;20684;-60
2022/01/21 00:40:35;;;;;;;17.27;7.37;;;1.40;1.00;;;;;;4990522;28;20935;-60
2022/01/21 00:43:17;;;;;;;11.60;3.63;;;1.40;1.00;;;;;;5002864;28;20748;-60
2022/01/21 00:45:47;;;;;;;14.13;2.80;;;1.40;1.00;;;;;;4971068;28;20610;-60
2022/01/21 00:48:15;;;;;;;12.93;2.90;;;1.50;1.00;;;;;;4987839;28;20304;-61
2022/01/21 00:50:42;;;;;;;14.17;2.90;;;1.40;1.00;;;;;;4986531;28;20200;-60
2022/01/21 00:53:09;;;;;;;11.57;3.23;;;1.40;1.00;;;;;;4985317;28;20228;-59
2022/01/21 00:55:36;;;;;;;10.80;3.07;;;1.50;1.00;;;;;;4977960;28;20240;-60
2022/01/21 00:58:10;;;;;;;12.47;3.07;;;1.50;1.00;;;;;;4986873;28;20200;-60
2022/01/21 01:00:37;;;;;;;9.50;3.00;;;1.50;1.00;;;;;;4988611;28;20221;-59
2022/01/21 01:03:04;;;;;;;16.03;3.47;;;1.50;1.00;;;;;;4980832;28;20205;-60
2022/01/21 01:05:32;;;;;;;16.23;3.57;;;1.50;1.00;;;;;;4988768;28;20677;-60
2022/01/21 01:08:00;;;;;;;14.03;2.80;;;1.50;1.00;;;;;;4969707;28;20234;-59
2022/01/21 01:21:29;;;;;;;14.97;3.10;;;1.50;1.00;;;;;;4982598;28;20291;-60
2022/01/21 01:27:35;;;;;;;9.33;2.87;;;1.60;1.00;;;;;;4997596;28;20261;-60
2022/01/21 01:29:38;;;;;;;13.63;2.90;;;1.50;1.00;;;;;;4985382;28;20205;-60
2022/01/21 01:32:09;;;;;;;14.63;2.57;;;1.40;1.00;;;;;;4988693;28;20285;-60
2022/01/21 01:34:39;;;;;;;7.40;2.60;;;1.20;1.00;;;;;;4989297;28;20200;-60
2022/01/21 01:37:09;;;;;;;16.67;3.67;;;1.10;1.00;;;;;;4971099;28;20244;-60
2022/01/21 01:39:43;;;;;;;14.60;3.33;;;0.90;1.00;;;;;;5003357;28;20224;-60
2022/01/21 01:42:54;;;;;;;12.03;3.00;;;0.80;25.70;;;;;;4989191;28;20239;-60
2022/01/21 01:50:39;;;;;;;19.50;3.30;;;0.50;99.90;;;;;;4989964;28;20242;-60
2022/01/21 01:53:08;;;;;;;19.37;3.53;;;0.40;99.90;;;;;;4992125;28;20243;-60
2022/01/21 01:55:36;;;;;;;12.53;3.63;;;0.30;1.00;;;;;;4992654;28;20271;-60
2022/01/21 01:58:03;;;;;;;20.57;5.63;;;0.30;1.00;;;;;;4990813;28;20247;-60
2022/01/21 02:00:31;;;;;;;17.27;6.03;;;0.30;1.00;;;;;;4988783;28;20251;-60
2022/01/21 02:03:09;;;;;;;15.63;3.93;;;0.30;1.00;;;;;;4976411;28;20201;-60
2022/01/21 02:05:37;;;;;;;12.57;3.27;;;0.30;1.00;;;;;;4990856;28;20201;-60
2022/01/21 02:08:05;;;;;;;11.47;3.00;;;0.30;1.00;;;;;;4992006;28;20247;-60
2022/01/21 02:10:35;;;;;;;17.57;4.20;;;0.30;1.00;;;;;;4993398;28;20684;-60
2022/01/21 02:13:06;;;;;;;12.90;3.20;;;0.30;1.00;;;;;;4975812;28;20201;-60
2022/01/21 02:15:42;;;;;;;19.87;3.67;;;0.50;53.90;;;;;;4988338;28;20781;-60
2022/01/21 02:23:41;;;;;;;13.87;3.47;;;0.60;13.60;;;;;;4987735;28;20221;-60
2022/01/21 02:26:09;;;;;;;16.13;3.50;;;0.80;1.00;;;;;;4987744;28;20296;-60
2022/01/21 02:28:38;;;;;;;15.70;3.17;;;0.80;1.00;;;;;;4987026;28;20210;-60
2022/01/21 02:31:10;;;;;;;24.10;4.33;;;0.90;1.00;;;;;;4988827;28;20297;-60
2022/01/21 02:33:39;;;;;;;18.03;3.73;;;1.00;1.00;;;;;;4987028;28;20205;-59
2022/01/21 02:36:06;;;;;;;21.43;4.90;;;1.00;1.00;;;;;;4994022;28;20248;-60
2022/01/21 02:38:41;;;;;;;21.57;6.70;;;1.00;1.00;;;;;;4988266;28;20210;-59
2022/01/21 02:41:08;;;;;;;16.47;5.40;;;1.00;99.90;;;;;;4972104;28;20220;-59
2022/01/21 02:43:35;;;;;;;19.53;4.03;;;1.00;99.90;;;;;;4998927;28;20865;-60
2022/01/21 02:46:06;;;;;;;14.97;3.53;;;1.00;99.90;;;;;;4986373;28;20285;-60
2022/01/21 02:48:37;;;;;;;13.67;3.80;;;0.90;99.90;;;;;;4986313;28;20202;-60
2022/01/21 02:51:08;;;;;;;14.97;3.40;;;0.80;99.90;;;;;;4981693;28;20201;-60
2022/01/21 02:56:19;;;;;;;15.43;3.67;;;0.60;99.90;;;;;;4986996;28;20210;-60
2022/01/21 02:58:49;;;;;;;13.77;3.33;;;0.50;99.90;;;;;;4988426;28;20205;-60
2022/01/21 03:01:18;;;;;;;19.77;3.80;;;0.60;1.00;;;;;;4986890;28;20205;-60
2022/01/21 03:03:46;;;;;;;19.47;3.63;;;0.70;1.00;;;;;;4982767;28;20576;-60
2022/01/21 03:06:17;;;;;;;19.97;4.77;;;0.80;1.00;;;;;;4970031;28;20264;-60
2022/01/21 03:08:48;;;;;;;18.27;3.40;;;0.90;1.00;;;;;;4988987;28;20209;-60
2022/01/21 03:11:16;;;;;;;18.33;4.30;;;1.00;1.00;;;;;;4997163;28;20206;-60
2022/01/21 03:13:44;;;;;;;14.93;3.50;;;1.00;99.90;;;;;;4968228;28;20316;-60
2022/01/21 03:16:13;;;;;;;21.70;4.97;;;1.10;99.90;;;;;;4999519;28;20220;-60
2022/01/21 03:18:40;;;;;;;20.50;6.17;;;1.20;99.90;;;;;;4971598;28;20288;-60
2022/01/21 03:21:10;;;;;;;11.50;3.40;;;1.20;99.90;;;;;;5007618;28;20204;-60
2022/01/21 03:23:37;;;;;;;15.17;3.40;;;1.20;99.90;;;;;;4992663;28;20209;-60
2022/01/21 03:26:07;;;;;;;20.13;3.37;;;1.20;99.90;;;;;;4990701;28;20205;-60
2022/01/21 03:28:46;;;;;;;11.73;3.97;;;1.20;99.90;;;;;;4991159;28;20200;-60
2022/01/21 03:31:14;;;;;;;21.63;3.50;;;1.10;99.90;;;;;;4990324;28;20209;-60
2022/01/21 03:33:42;;;;;;;19.93;4.10;;;1.10;99.90;;;;;;4991314;28;20212;-60
2022/01/21 03:36:10;;;;;;;15.43;4.93;;;1.00;99.90;;;;;;4987229;28;20249;-60
2022/01/21 03:38:42;;;;;;;19.37;4.33;;;1.00;99.90;;;;;;4979595;28;20221;-60
2022/01/21 03:41:10;;;;;;;23.13;4.60;;;1.00;99.90;;;;;;4989260;28;20604;-60
2022/01/21 03:43:38;;;;;;;11.40;3.37;;;1.10;99.90;;;;;;4997731;28;20767;-60
2022/01/21 03:46:06;;;;;;;16.00;3.20;;;1.10;99.90;;;;;;4971611;28;20307;-60
2022/01/21 03:48:34;;;;;;;17.33;3.47;;;1.20;99.90;;;;;;4989579;28;20231;-60
2022/01/21 03:51:03;;;;;;;16.57;3.50;;;1.20;99.90;;;;;;4982879;28;20201;-60
2022/01/21 03:53:33;;;;;;;14.07;3.73;;;1.20;99.90;;;;;;4985557;28;20228;-60
2022/01/21 03:56:01;;;;;;;16.10;4.90;;;1.30;99.90;;;;;;4988625;28;20217;-60
2022/01/21 03:58:31;;;;;;;22.17;6.10;;;1.30;99.90;;;;;;4989557;28;20335;-59
2022/01/21 04:01:00;;;;;;;24.37;3.93;;;1.20;99.90;;;;;;4984943;28;20587;-60
2022/01/21 04:03:30;;;;;;;24.60;4.13;;;1.10;99.90;;;;;;4969901;28;20212;-60
2022/01/21 04:06:00;;;;;;;20.00;4.00;;;1.00;99.90;;;;;;4987452;28;20204;-60
2022/01/21 04:08:27;;;;;;;15.83;3.53;;;1.00;99.90;;;;;;4985582;28;20204;-60
2022/01/21 04:11:00;;;;;;;25.73;3.90;;;1.10;1.00;;;;;;4974572;28;20213;-60
2022/01/21 04:13:30;;;;;;;19.63;4.53;;;1.00;1.00;;;;;;4967357;28;20202;-60
2022/01/21 04:16:00;;;;;;;15.23;3.93;;;1.10;1.00;;;;;;4989701;28;20233;-60
2022/01/21 04:18:33;;;;;;;11.20;3.43;;;1.00;1.00;;;;;;4975687;28;20595;-60
2022/01/21 04:21:03;;;;;;;12.53;3.17;;;0.90;1.00;;;;;;4990371;28;20197;-60
2022/01/21 04:23:32;;;;;;;13.40;3.50;;;0.90;1.00;;;;;;4989467;28;20323;-59
2022/01/21 04:25:59;;;;;;;18.53;3.53;;;0.90;1.00;;;;;;4989713;28;20679;-60
2022/01/21 04:28:26;;;;;;;13.43;3.13;;;0.90;1.00;;;;;;4987112;28;20278;-60
2022/01/21 04:30:57;;;;;;;9.87;3.00;;;0.90;1.00;;;;;;4988078;28;20208;-60
2022/01/21 04:33:44;;;;;;;16.60;3.70;;;1.00;1.00;;;;;;5007401;28;20974;-59
2022/01/21 04:36:11;;;;;;;15.93;4.63;;;1.10;1.00;;;;;;5005227;28;20212;-59
2022/01/21 04:38:39;;;;;;;22.57;8.07;;;1.20;1.00;;;;;;4990737;28;20201;-59
2022/01/21 04:49:11;;;;;;;26.10;7.90;;;1.30;1.00;;;;;;4986540;28;20212;-59
2022/01/21 04:51:42;;;;;;;22.87;5.37;;;1.30;1.00;;;;;;4967711;28;20201;-59
2022/01/21 04:54:12;;;;;;;18.27;5.47;;;1.30;1.00;;;;;;4998192;28;20209;-60
2022/01/21 04:56:42;;;;;;;19.80;5.30;;;1.30;1.00;;;;;;4968137;28;20213;-60
2022/01/21 04:59:09;;;;;;;20.60;7.10;;;1.20;1.00;;;;;;4988861;28;20212;-60
2022/01/21 05:01:41;;;;;;;27.90;6.77;;;1.30;1.00;;;;;;4988572;28;20200;-60
2022/01/21 05:04:08;;;;;;;19.80;5.57;;;1.30;1.00;;;;;;5003439;28;20208;-60
2022/01/21 05:06:35;;;;;;;27.47;6.07;;;1.30;1.00;;;;;;4972756;28;20233;-60
2022/01/21 05:09:05;;;;;;;33.27;10.93;;;1.30;1.00;;;;;;4982797;28;20255;-60
2022/01/21 05:11:36;;;;;;;23.73;5.47;;;1.40;1.00;;;;;;4981878;28;20201;-60
2022/01/21 05:14:18;;;;;;;25.27;9.10;;;1.40;1.00;;;;;;4997213;28;20580;-61
2022/01/21 05:17:02;;;;;;;34.30;19.37;;;1.40;99.90;;;;;;4981993;28;20209;-60
2022/01/21 05:19:29;;;;;;;18.60;7.07;;;1.40;99.90;;;;;;4992203;28;20224;-60
2022/01/21 05:22:28;;;;;;;21.97;7.17;;;1.40;99.90;;;;;;4968429;28;20339;-60
2022/01/21 05:24:56;;;;;;;24.70;9.47;;;1.40;99.90;;;;;;4989978;28;20201;-60
2022/01/21 05:27:25;;;;;;;17.90;6.83;;;1.30;99.90;;;;;;4991739;28;20563;-59
2022/01/21 05:29:52;;;;;;;22.17;6.67;;;1.20;99.90;;;;;;4987128;28;20208;-60
2022/01/21 05:32:23;;;;;;;18.37;4.43;;;1.30;1.00;;;;;;4978526;28;20203;-60
2022/01/21 05:35:06;;;;;;;16.47;5.77;;;1.40;1.00;;;;;;4988606;28;20482;-60
2022/01/21 05:37:39;;;;;;;21.27;6.23;;;1.50;1.00;;;;;;5005879;28;20220;-60
2022/01/21 05:40:17;;;;;;;22.37;7.83;;;1.50;99.90;;;;;;5005590;28;20616;-60
2022/01/21 05:43:07;;;;;;;16.43;6.03;;;1.50;99.90;;;;;;4993010;28;20205;-60
2022/01/21 05:49:05;;;;;;;19.63;6.23;;;1.60;99.90;;;;;;4991453;28;20209;-60
2022/01/21 05:51:53;;;;;;;10.07;3.60;;;1.60;99.90;;;;;;4989460;28;20606;-61
2022/01/21 05:54:41;;;;;;;14.07;5.20;;;1.60;99.90;;;;;;4989130;28;20220;-59
2022/01/21 05:57:34;;;;;;;12.83;3.87;;;1.60;99.90;;;;;;4992612;28;20220;-60
2022/01/21 06:00:03;;;;;;;9.53;4.00;;;1.60;99.90;;;;;;4992690;28;20208;-60
2022/01/21 06:02:30;;;;;;;31.03;9.97;;;1.60;99.90;;;;;;4983669;28;20201;-60
2022/01/21 06:04:58;;;;;;;69.63;35.27;;;1.60;99.90;;;;;;4988159;28;20217;-60
2022/01/21 06:07:25;;;;;;;17.47;6.60;;;1.50;99.90;;;;;;4989851;28;20549;-60
2022/01/21 06:09:52;;;;;;;17.83;4.13;;;1.50;99.90;;;;;;4990746;28;20201;-60
2022/01/21 06:12:19;;;;;;;10.80;2.63;;;1.50;99.90;;;;;;4990634;28;20727;-60
2022/01/21 06:14:46;;;;;;;12.97;2.40;;;1.50;99.90;;;;;;5006596;28;20241;-60
2022/01/21 06:17:14;;;;;;;15.00;3.53;;;1.50;99.90;;;;;;5006000;28;20217;-60
2022/01/21 06:19:41;;;;;;;12.97;2.80;;;1.50;99.90;;;;;;5003128;28;20197;-60
2022/01/21 06:22:08;;;;;;;15.43;3.47;;;1.60;99.90;;;;;;4992305;28;20243;-60
2022/01/21 06:24:35;;;;;;;15.37;3.03;;;1.60;99.90;;;;;;4992186;28;20243;-60
2022/01/21 06:27:04;;;;;;;10.30;2.93;;;1.60;99.90;;;;;;4992014;28;20197;-60
2022/01/21 06:29:31;;;;;;;11.83;3.43;;;1.60;99.90;;;;;;4992273;28;20217;-60
2022/01/21 06:31:58;;;;;;;12.67;3.07;;;1.60;99.90;;;;;;4983916;28;20208;-61
2022/01/21 06:34:25;;;;;;;10.47;2.70;;;1.60;99.90;;;;;;5005103;28;20225;-60
2022/01/21 06:36:55;;;;;;;14.87;6.67;;;1.60;99.90;;;;;;4972471;28;20306;-60
2022/01/21 06:39:21;;;;;;;10.97;4.90;;;1.60;99.90;;;;;;4992294;28;20223;-60
2022/01/21 06:41:49;;;;;;;19.87;10.33;;;1.60;99.90;;;;;;4976671;28;20255;-60
2022/01/21 06:44:16;;;;;;;10.30;3.83;;;1.60;99.90;;;;;;4991582;28;20193;-60
2022/01/21 06:46:43;;;;;;;10.77;3.90;;;1.60;99.90;;;;;;4990244;28;20251;-61
2022/01/21 06:49:10;;;;;;;13.13;4.13;;;1.70;99.90;;;;;;4987917;28;20205;-60
2022/01/21 06:51:42;;;;;;;13.53;5.53;;;1.70;99.90;;;;;;4987732;28;20197;-60
2022/01/21 06:54:09;;;;;;;14.83;3.97;;;1.70;99.90;;;;;;4992651;28;20239;-61
2022/01/21 06:56:36;;;;;;;19.40;3.10;;;1.70;99.90;;;;;;5007037;28;20221;-60
2022/01/21 06:59:03;;;;;;;8.43;2.73;;;1.70;99.90;;;;;;4983730;28;20247;-60
2022/01/21 07:01:30;;;;;;;16.03;4.70;;;1.70;99.90;;;;;;4996034;28;20197;-61
2022/01/21 07:03:57;;;;;;;16.20;4.60;;;1.60;99.90;;;;;;4988620;28;20211;-61
2022/01/21 07:06:24;;;;;;;11.20;3.73;;;1.70;99.90;;;;;;4989077;28;20246;-60
2022/01/21 07:08:51;;;;;;;12.73;4.63;;;1.70;99.90;;;;;;5006979;28;20197;-60
2022/01/21 07:11:18;;;;;;;14.87;4.57;;;1.70;1.00;;;;;;4986790;28;20263;-60
2022/01/21 07:13:47;;;;;;;14.23;4.40;;;1.80;1.00;;;;;;5003724;28;20220;-60
2022/01/21 07:16:14;;;;;;;14.60;3.40;;;1.80;1.00;;;;;;4974672;28;20275;-61
2022/01/21 07:18:42;;;;;;;10.90;3.50;;;1.80;99.90;;;;;;4978831;28;20205;-60
2022/01/21 07:21:09;;;;;;;12.63;4.13;;;1.80;1.00;;;;;;4991579;28;20288;-60
2022/01/21 07:23:36;;;;;;;11.93;4.43;;;1.80;1.00;;;;;;5006625;28;20289;-60
2022/01/21 07:26:04;;;;;;;11.97;5.20;;;1.90;1.00;;;;;;5002015;28;20217;-60
2022/01/21 07:28:33;;;;;;;15.77;3.70;;;1.80;1.00;;;;;;4987948;28;20284;-60
2022/01/21 07:31:00;;;;;;;15.10;4.37;;;1.90;1.00;;;;;;5002940;28;20688;-60
2022/01/21 07:33:32;;;;;;;10.27;3.17;;;1.90;99.90;;;;;;4987525;28;20189;-60
2022/01/21 07:36:01;;;;;;;12.10;3.37;;;2.00;99.90;;;;;;5004900;28;20201;-60
2022/01/21 07:38:28;;;;;;;15.43;4.23;;;1.90;99.90;;;;;;4979935;28;20224;-60
2022/01/21 07:40:55;;;;;;;11.60;2.87;;;1.90;99.90;;;;;;4985415;28;20235;-60
2022/01/21 07:43:22;;;;;;;7.77;2.40;;;2.00;99.90;;;;;;4968040;28;20197;-59
2022/01/21 07:45:49;;;;;;;13.20;3.07;;;2.00;99.90;;;;;;4969634;28;20304;-60
2022/01/21 07:48:16;;;;;;;12.10;2.70;;;2.00;99.90;;;;;;4987199;28;20216;-61
2022/01/21 07:50:45;;;;;;;13.47;3.13;;;2.00;99.90;;;;;;4987538;28;20205;-60
2022/01/21 07:53:12;;;;;;;10.97;2.77;;;2.10;99.90;;;;;;4989318;28;20235;-61
2022/01/21 07:55:39;;;;;;;15.30;3.30;;;2.10;99.90;;;;;;4989330;28;20235;-60
2022/01/21 07:58:08;;;;;;;14.00;3.10;;;2.10;99.90;;;;;;4984476;28;20223;-60
2022/01/21 08:00:37;;;;;;;14.60;2.90;;;2.10;99.90;;;;;;5003961;28;20201;-60
2022/01/21 08:03:04;;;;;;;9.30;3.07;;;2.20;99.90;;;;;;4984720;28;20255;-60
2022/01/21 08:05:34;;;;;;;17.07;5.50;;;2.20;99.90;;;;;;4974943;28;20205;-60
2022/01/21 08:08:02;;;;;;;17.57;4.97;;;2.20;99.90;;;;;;5005013;28;20206;-60
2022/01/21 08:10:31;;;;;;;15.67;2.50;;;2.30;99.90;;;;;;4989743;28;20232;-60
2022/01/21 08:13:00;;;;;;;15.60;3.37;;;2.30;99.90;;;;;;4990225;28;20208;-60
2022/01/21 08:15:30;;;;;;;10.90;2.60;;;2.40;99.90;;;;;;5002678;28;20724;-61
2022/01/21 08:17:57;;;;;;;8.47;3.03;;;2.40;99.90;;;;;;4985725;28;20472;-60
2022/01/21 08:20:28;;;;;;;19.30;3.23;;;2.50;99.90;;;;;;5005094;28;20192;-60
2022/01/21 08:22:55;;;;;;;13.97;2.70;;;2.60;99.90;;;;;;4986238;28;20216;-60
2022/01/21 08:25:22;;;;;;;14.90;2.97;;;2.60;99.90;;;;;;4989179;28;20220;-60
2022/01/21 08:27:49;;;;;;;11.07;3.17;;;2.70;96.70;;;;;;4991280;28;20672;-60
2022/01/21 08:30:19;;;;;;;20.27;3.10;;;2.80;9.70;;;;;;4973427;28;20731;-60
2022/01/21 08:32:46;;;;;;;10.87;2.90;;;2.90;1.00;;;;;;4999418;28;20641;-60
2022/01/21 08:35:13;;;;;;;17.53;2.87;;;3.10;1.00;;;;;;5000482;28;20200;-60
2022/01/21 08:37:40;;;;;;;15.30;2.77;;;3.30;1.00;;;;;;4980288;28;20256;-60
2022/01/21 08:40:10;;;;;;;15.27;3.07;;;3.40;1.00;;;;;;4988691;28;20328;-60
2022/01/21 08:42:38;;;;;;;14.47;3.77;;;3.50;1.00;;;;;;4994532;28;20283;-60
2022/01/21 08:45:05;;;;;;;9.97;3.20;;;3.70;1.00;;;;;;4973445;28;20292;-60
2022/01/21 08:47:35;;;;;;;12.50;3.70;;;3.90;99.90;;;;;;4989435;28;20231;-60
2022/01/21 08:50:07;;;;;;;19.67;5.10;;;3.90;99.90;;;;;;4988142;28;20220;-60
2022/01/21 08:52:38;;;;;;;10.93;3.40;;;4.00;99.90;;;;;;4987029;28;20228;-60
2022/01/21 08:55:07;;;;;;;9.50;3.20;;;4.10;99.90;;;;;;4961823;28;20567;-60
2022/01/21 08:57:37;;;;;;;11.40;2.60;;;4.20;99.90;;;;;;4985184;28;20209;-60
2022/01/21 09:00:08;;;;;;;11.10;2.83;;;4.20;99.90;;;;;;4969183;28;20205;-61
2022/01/21 09:02:35;;;;;;;8.43;2.80;;;4.00;99.90;;;;;;4989845;28;20196;-60
2022/01/21 09:05:05;;;;;;;14.20;2.97;;;3.90;99.90;;;;;;4980570;28;20280;-58
2022/01/21 09:07:32;;;;;;;21.80;3.30;;;4.00;99.90;;;;;;4998952;28;20228;-59
2022/01/21 09:09:59;;;;;;;13.93;3.17;;;4.20;99.90;;;;;;4983783;28;20205;-58
2022/01/21 09:12:31;;;;;;;14.93;3.50;;;4.30;99.90;;;;;;4989623;28;20212;-59
2022/01/21 09:14:59;;;;;;;8.97;3.13;;;4.60;99.90;;;;;;4982656;28;20233;-59
2022/01/21 09:17:26;;;;;;;13.27;4.37;;;5.00;40.10;;;;;;4986225;28;20212;-57
2022/01/21 09:19:53;;;;;;;10.00;2.93;;;5.30;1.00;;;;;;4987377;28;20637;-58
2022/01/21 09:22:20;;;;;;;8.10;2.97;;;5.30;1.00;;;;;;4987181;28;20205;-58
2022/01/21 09:24:49;;;;;;;12.20;3.83;;;5.10;1.00;;;;;;4985364;28;20914;-59
2022/01/21 09:27:16;;;;;;;14.87;3.17;;;4.90;1.00;;;;;;5006167;28;20197;-59
2022/01/21 09:29:45;;;;;;;14.43;2.90;;;4.80;1.00;;;;;;4971590;28;20641;-58
2022/01/21 09:32:12;;;;;;;10.67;2.67;;;4.90;64.10;;;;;;5005703;28;20686;-58
2022/01/21 09:34:44;;;;;;;8.53;2.90;;;5.60;1.00;;;;;;4986343;28;20300;-59
2022/01/21 09:37:11;;;;;;;11.10;2.87;;;6.40;1.00;;;;;;4971583;28;20239;-58
2022/01/21 09:39:40;;;;;;;14.53;3.43;;;7.00;99.90;;;;;;4987345;28;20671;-58
2022/01/21 09:42:08;;;;;;;13.97;3.20;;;7.20;99.90;;;;;;4987156;28;20300;-59
2022/01/21 09:44:39;;;;;;;15.50;3.40;;;7.10;99.90;;;;;;5004762;28;20247;-58
2022/01/21 09:47:11;;;;;;;12.40;2.83;;;7.40;99.90;;;;;;4989173;28;20208;-58
2022/01/21 09:49:41;;;;;;;9.13;3.00;;;9.50;1.00;;;;;;4983739;28;20229;-59
2022/01/21 09:52:10;;;;;;;9.00;2.50;;;10.70;1.00;;;;;;4997776;28;20599;-59
2022/01/21 09:54:48;;;;;;;10.67;3.30;;;11.70;99.90;;;;;;4998568;28;20272;-60
2022/01/21 09:57:23;;;;;;;10.03;2.90;;;11.70;99.90;;;;;;4979743;28;20312;-59
2022/01/21 09:59:55;;;;;;;8.37;2.80;;;9.80;1.00;;;;;;4978613;28;20691;-59
2022/01/21 10:02:29;;;;;;;8.83;2.47;;;8.90;1.00;;;;;;4976959;28;20188;-58
2022/01/21 10:04:58;;;;;;;7.80;3.10;;;8.40;1.00;;;;;;4982213;28;20232;-60
2022/01/21 10:07:30;;;;;;;9.33;3.53;;;8.80;1.00;;;;;;5001565;28;20250;-60
2022/01/21 10:10:00;;;;;;;12.17;3.37;;;10.90;99.90;;;;;;4976284;28;20236;-60
2022/01/21 10:12:27;;;;;;;7.20;2.83;;;14.40;99.90;;;;;;5000903;28;20216;-60
2022/01/21 10:14:55;;;;;;;9.03;3.77;;;17.40;99.90;;;;;;4997635;28;20275;-60
2022/01/21 10:17:59;;;;;;;4.80;2.00;;;18.70;99.90;;;;;;4988275;28;20205;-60
2022/01/21 10:21:06;;;;;;;5.82;2.85;;;19.30;99.90;;;;;;4998314;28;20200;-60
2022/01/21 10:23:37;;;;;;;11.57;3.70;;;18.50;99.90;;;;;;5001920;28;20197;-61
2022/01/21 10:26:10;;;;;;;12.20;4.20;;;17.00;99.90;;;;;;4979170;28;20278;-60
2022/01/21 10:28:40;;;;;;;8.98;4.25;;;15.40;99.90;;;;;;4996959;28;20291;-60
2022/01/21 10:31:14;;;;;;;16.17;4.40;;;15.30;99.90;;;;;;4984263;28;20207;-60
2022/01/21 10:33:56;;;;;;;9.13;4.03;;;16.50;99.90;;;;;;4998628;28;20192;-61
2022/01/21 10:36:28;;;;;;;15.05;4.55;;;17.50;99.90;;;;;;4985756;28;20259;-60
2022/01/21 10:39:10;;;;;;;13.00;3.75;;;15.30;99.90;;;;;;5001965;28;20255;-60
2022/01/21 10:41:45;;;;;;;11.80;3.58;;;12.80;99.90;;;;;;5000142;28;20174;-60
2022/01/21 10:44:18;;;;;;;12.57;3.90;;;12.50;99.90;;;;;;4999164;28;20842;-60
2022/01/21 10:47:10;;;;;;;8.13;3.37;;;13.50;99.90;;;;;;4999946;28;20247;-60
2022/01/21 10:49:42;;;;;;;14.00;3.00;;;13.30;99.90;;;;;;4984013;28;20563;-60
2022/01/21 10:52:15;;;;;;;10.30;3.07;;;13.00;99.90;;;;;;4989181;28;20209;-60
2022/01/21 10:54:44;;;;;;;12.10;2.92;;;15.20;99.90;;;;;;4984365;28;20726;-60
2022/01/21 10:57:14;;;;;;;10.02;2.40;;;15.80;99.90;;;;;;4986367;28;20204;-60
2022/01/21 10:59:49;;;;;;;7.45;2.72;;;14.90;99.90;;;;;;4985938;28;20312;-61
2022/01/21 11:02:36;;;;;;;11.90;3.25;;;12.90;99.90;;;;;;4986025;28;20291;-60
2022/01/21 11:05:11;;;;;;;15.40;4.57;;;11.30;99.90;;;;;;4998864;28;20201;-60
2022/01/21 11:07:48;;;;;;;8.97;2.53;;;10.70;99.90;;;;;;4989452;28;20201;-59
2022/01/21 11:10:39;;;;;;;9.67;3.10;;;10.00;1.00;;;;;;4989437;28;20269;-60
2022/01/21 11:13:18;;;;;;;12.47;3.93;;;9.60;1.00;;;;;;4987438;28;20225;-60
2022/01/21 11:15:46;;;;;;;11.60;3.77;;;9.90;1.00;;;;;;4977780;28;20568;-61
2022/01/21 11:18:30;;;;;;;16.27;4.63;;;10.30;1.00;;;;;;4981162;28;20214;-61
2022/01/21 11:21:07;;;;;;;10.50;5.50;;;10.30;1.00;;;;;;4979863;28;20189;-60
2022/01/21 11:23:37;;;;;;;15.97;5.87;;;10.40;1.00;;;;;;4997933;28;20201;-60
2022/01/21 11:26:09;;;;;;;12.00;4.50;;;10.50;1.00;;;;;;5001123;28;20317;-60
2022/01/21 11:28:37;;;;;;;21.50;7.30;;;10.70;1.00;;;;;;4963255;28;20225;-61
2022/01/21 11:31:05;;;;;;;11.60;4.03;;;11.50;99.90;;;;;;4964041;28;21987;-62
2022/01/21 11:33:33;;;;;;;10.10;3.63;;;12.20;99.90;;;;;;4977625;28;20281;-61
2022/01/21 11:36:01;;;;;;;15.97;4.77;;;12.10;99.90;;;;;;4975631;28;20204;-61
2022/01/21 11:38:30;;;;;;;13.10;5.80;;;11.90;99.90;;;;;;4961854;28;20581;-60
2022/01/21 11:41:00;;;;;;;17.53;6.27;;;12.20;99.90;;;;;;4978851;28;20216;-60
2022/01/21 11:43:31;;;;;;;17.10;4.90;;;11.70;99.90;;;;;;4964286;28;20309;-61
2022/01/21 11:46:39;;;;;;;17.47;4.83;;;11.70;99.90;;;;;;4957129;28;20194;-60
2022/01/21 11:48:56;;;;;;;12.83;4.97;;;12.10;99.90;;;;;;4987768;28;20210;-60
2022/01/21 11:51:29;;;;;;;11.20;4.80;;;11.50;99.90;;;;;;4978777;28;20190;-60
2022/01/21 11:54:01;;;;;;;14.37;4.63;;;11.30;99.90;;;;;;4973812;28;20785;-60
2022/01/21 11:56:35;;;;;;;11.80;4.53;;;11.70;99.90;;;;;;4972449;28;20190;-60
2022/01/21 11:59:30;;;;;;;12.37;4.77;;;12.30;99.90;;;;;;4983999;28;20217;-60
2022/01/21 12:01:58;;;;;;;12.00;3.97;;;11.30;99.90;;;;;;4979133;28;20201;-60
2022/01/21 12:04:41;;;;;;;13.37;4.13;;;10.30;1.00;;;;;;4982053;28;20624;-60
2022/01/21 12:07:34;;;;;;;13.63;3.87;;;9.60;1.00;;;;;;4980281;28;20206;-60
2022/01/21 12:10:11;;;;;;;16.70;4.50;;;9.00;1.00;;;;;;4978269;28;20737;-59
2022/01/21 12:15:36;;;;;;;8.07;2.67;;;8.80;24.70;;;;;;4990649;28;20322;-60
2022/01/21 12:18:09;;;;;;;12.97;3.60;;;8.70;65.20;;;;;;4975818;28;20268;-60
2022/01/21 12:20:37;;;;;;;13.17;4.40;;;8.60;56.80;;;;;;4980981;28;20406;-60
2022/01/21 12:23:17;;;;;;;16.10;3.47;;;8.40;98.90;;;;;;4976314;28;20257;-60
2022/01/21 12:26:08;;;;;;;13.40;3.87;;;8.50;93.50;;;;;;4989842;28;20202;-60
2022/01/21 12:28:37;;;;;;;19.33;3.83;;;8.40;99.90;;;;;;4976888;28;20616;-60
2022/01/21 12:31:06;;;;;;;16.27;3.37;;;8.30;99.90;;;;;;4978705;28;20608;-60
2022/01/21 12:34:11;;;;;;;12.63;3.20;;;8.00;99.90;;;;;;4951187;28;20554;-59
2022/01/21 12:36:53;;;;;;;12.83;3.20;;;7.90;99.90;;;;;;4966197;28;21020;-59
2022/01/21 12:39:42;;;;;;;15.00;3.27;;;7.60;99.90;;;;;;4974713;28;20305;-58
2022/01/21 12:42:21;;;;;;;12.07;2.70;;;7.30;1.00;;;;;;4974688;28;20198;-58
2022/01/21 12:45:16;;;;;;;12.30;2.90;;;7.10;1.00;;;;;;4978502;28;20199;-58
2022/01/21 12:47:50;;;;;;;17.57;6.83;;;7.00;1.00;;;;;;4976398;28;20198;-59
2022/01/21 12:50:49;;;;;;;17.33;3.50;;;7.00;1.00;;;;;;4970162;28;20201;-58
2022/01/21 12:53:25;;;;;;;13.60;3.23;;;6.90;1.00;;;;;;4976044;28;20202;-58
2022/01/21 12:55:55;;;;;;;12.50;3.20;;;7.00;1.00;;;;;;4970666;28;20233;-59
2022/01/21 12:58:37;;;;;;;14.37;2.80;;;7.20;1.00;;;;;;4971696;28;20218;-58
2022/01/21 13:01:15;;;;;;;16.37;4.20;;;7.10;1.00;;;;;;4967732;28;20200;-59
2022/01/21 13:03:45;;;;;;;14.43;4.87;;;7.10;1.00;;;;;;4973042;28;20194;-59
2022/01/21 13:06:20;;;;;;;13.70;3.57;;;7.10;1.00;;;;;;4973724;28;20745;-57
2022/01/21 13:09:08;;;;;;;12.57;4.53;;;7.10;1.00;;;;;;4959647;28;20288;-59
2022/01/21 13:11:40;;;;;;;14.20;4.30;;;7.00;1.00;;;;;;4974715;28;20657;-58
2022/01/21 13:17:10;;;;;;;19.40;4.43;;;6.80;1.00;;;;;;4995721;28;20193;-58
2022/01/21 13:19:50;;;;;;;18.80;3.47;;;6.70;1.00;;;;;;4979364;28;20567;-58
2022/01/21 13:22:22;;;;;;;15.77;4.30;;;6.60;1.00;;;;;;4996961;28;20204;-58
2022/01/21 13:25:08;;;;;;;23.40;4.03;;;6.50;1.00;;;;;;4999073;28;20235;-58
2022/01/21 13:27:44;;;;;;;12.90;4.60;;;6.50;1.00;;;;;;4996687;28;20556;-58
2022/01/21 13:30:14;;;;;;;17.53;3.27;;;6.40;1.00;;;;;;4983028;28;20205;-57
2022/01/21 13:32:42;;;;;;;12.50;3.77;;;6.40;1.00;;;;;;4982494;28;20198;-57
2022/01/21 13:35:18;;;;;;;16.40;4.00;;;6.40;1.00;;;;;;4973134;28;20554;-57
2022/01/21 13:38:15;;;;;;;11.40;3.07;;;6.30;1.00;;;;;;4982897;28;20231;-58
2022/01/21 13:40:48;;;;;;;20.83;4.27;;;6.20;66.50;;;;;;4977094;28;20217;-58
2022/01/21 13:43:15;;;;;;;25.00;4.40;;;6.10;99.90;;;;;;4995790;28;20193;-58
2022/01/21 13:46:03;;;;;;;13.67;2.93;;;6.00;99.90;;;;;;4999344;28;20467;-60
2022/01/21 13:48:35;;;;;;;20.30;4.87;;;5.90;99.90;;;;;;4971252;28;20925;-58
2022/01/21 13:51:06;;;;;;;13.57;2.87;;;5.80;99.90;;;;;;4989939;28;20255;-57
2022/01/21 13:53:41;;;;;;;30.53;4.83;;;5.80;99.90;;;;;;4968519;28;20218;-58
2022/01/21 13:56:10;;;;;;;17.77;3.87;;;5.70;1.00;;;;;;4978974;28;20219;-58
2022/01/21 13:58:37;;;;;;;11.60;4.23;;;5.60;1.00;;;;;;4999964;28;20213;-58
2022/01/21 14:01:26;;;;;;;9.50;3.37;;;5.60;1.00;;;;;;4977831;28;20603;-58
2022/01/21 14:03:58;;;;;;;30.57;4.90;;;5.60;1.00;;;;;;4999349;28;20305;-58
2022/01/21 14:06:25;;;;;;;18.50;3.97;;;5.60;1.00;;;;;;4999141;28;21260;-58
2022/01/21 14:09:00;;;;;;;17.17;4.40;;;5.60;1.00;;;;;;4978801;28;20267;-59